createdAt,value
2022-10-08T00:02:15.075Z,99.94
2022-10-08T00:04:45.378Z,100.00
2022-10-08T00:07:14.945Z,99.99
2022-10-08T00:09:47.150Z,99.75
2022-10-08T00:12:16.696Z,99.48
2022-10-08T00:14:46.303Z,99.81
2022-10-08T00:17:15.848Z,99.40
2022-10-08T00:19:45.526Z,99.83
2022-10-08T00:22:15.062Z,100.00
2022-10-08T00:24:47.191Z,99.76
2022-10-08T00:27:16.874Z,99.65
2022-10-08T00:29:46.973Z,99.30
2022-10-08T00:32:17.475Z,99.58
2022-10-08T00:34:47.024Z,99.39
2022-10-08T00:37:18.195Z,99.53
2022-10-08T00:39:50.373Z,99.52
2022-10-08T00:42:19.908Z,99.55
2022-10-08T00:44:58.763Z,100.00
2022-10-08T00:47:38.573Z,100.00
2022-10-08T00:50:12.381Z,100.00
2022-10-08T00:52:47.520Z,100.00
2022-10-08T00:55:21.933Z,100.00
2022-10-08T00:57:51.884Z,100.00
2022-10-08T01:00:23.813Z,100.00
2022-10-08T01:02:53.453Z,100.00
2022-10-08T01:05:33.547Z,100.00
2022-10-08T01:08:08.972Z,100.00
2022-10-08T01:10:47.108Z,100.00
2022-10-08T01:13:22.823Z,100.00
2022-10-08T01:15:58.820Z,100.00
2022-10-08T01:18:55.378Z,100.00
2022-10-08T01:21:29.166Z,100.00
2022-10-08T01:24:11.316Z,100.00
2022-10-08T01:26:52.397Z,100.00
2022-10-08T01:29:26.721Z,100.00
2022-10-08T01:32:01.832Z,100.00
2022-10-08T01:34:35.329Z,100.00
2022-10-08T01:37:06.287Z,100.00
2022-10-08T01:39:37.803Z,100.00
2022-10-08T01:42:10.198Z,100.00
2022-10-08T01:44:45.243Z,100.00
2022-10-08T01:47:17.214Z,100.00
2022-10-08T01:49:51.013Z,100.00
2022-10-08T01:52:23.387Z,100.00
2022-10-08T01:54:56.539Z,100.00
2022-10-08T01:57:26.391Z,100.00
2022-10-08T02:00:03.102Z,100.00
2022-10-08T02:02:42.112Z,100.00
2022-10-08T02:05:12.134Z,100.00
2022-10-08T02:07:44.075Z,100.00
2022-10-08T02:10:15.564Z,100.00
2022-10-08T02:12:46.294Z,100.00
2022-10-08T02:15:22.338Z,100.00
2022-10-08T02:17:59.533Z,100.00
2022-10-08T02:20:35.120Z,100.00
2022-10-08T02:23:09.391Z,100.00
2022-10-08T02:25:41.339Z,100.00
2022-10-08T02:28:13.536Z,100.00
2022-10-08T02:30:49.735Z,100.00
2022-10-08T02:33:24.418Z,100.00
2022-10-08T02:35:56.193Z,100.00
2022-10-08T02:38:28.327Z,100.00
2022-10-08T02:41:00.867Z,100.00
2022-10-08T02:43:32.675Z,100.00
2022-10-08T02:46:09.070Z,100.00
2022-10-08T02:48:42.358Z,100.00
2022-10-08T02:51:15.732Z,100.00
2022-10-08T02:53:46.004Z,100.00
2022-10-08T02:56:18.230Z,100.00
2022-10-08T02:58:47.856Z,100.00
2022-10-08T03:01:26.547Z,100.00
2022-10-08T03:03:59.953Z,100.00
2022-10-08T03:06:30.051Z,100.00
2022-10-08T03:09:00.997Z,100.00
2022-10-08T03:11:32.126Z,100.00
2022-10-08T03:14:02.685Z,100.00
2022-10-08T03:16:40.667Z,100.00
2022-10-08T03:19:11.206Z,100.00
2022-10-08T03:21:41.501Z,100.00
2022-10-08T03:24:11.879Z,100.00
2022-10-08T03:26:41.731Z,100.00
2022-10-08T03:29:11.863Z,100.00
2022-10-08T03:31:44.043Z,100.00
2022-10-08T03:34:13.651Z,100.00
2022-10-08T03:36:43.284Z,100.00
2022-10-08T03:39:13.384Z,100.00
2022-10-08T03:41:43.408Z,100.00
2022-10-08T03:44:13.426Z,100.00
2022-10-08T03:46:45.616Z,100.00
2022-10-08T03:49:15.157Z,100.00
2022-10-08T03:51:44.740Z,100.00
2022-10-08T03:54:14.305Z,100.00
2022-10-08T03:56:43.820Z,100.00
2022-10-08T03:59:13.742Z,100.00
2022-10-08T04:01:45.928Z,100.00
2022-10-08T04:04:15.711Z,100.00
2022-10-08T04:06:45.332Z,100.00
2022-10-08T04:09:15.056Z,100.00
2022-10-08T04:11:44.625Z,100.00
2022-10-08T04:14:14.219Z,100.00
2022-10-08T04:16:47.459Z,100.00
2022-10-08T04:19:17.602Z,100.00
2022-10-08T04:21:47.264Z,100.00
2022-10-08T04:24:20.367Z,100.00
2022-10-08T04:26:49.927Z,100.00
2022-10-08T04:29:19.716Z,100.00
2022-10-08T04:31:51.840Z,100.00
2022-10-08T04:34:21.414Z,100.00
2022-10-08T04:36:50.933Z,100.00
2022-10-08T04:39:20.520Z,100.00
2022-10-08T04:41:50.131Z,100.00
2022-10-08T04:44:19.760Z,100.00
2022-10-08T04:46:51.956Z,100.00
2022-10-08T04:49:22.104Z,100.00
2022-10-08T04:51:51.635Z,100.00
2022-10-08T04:54:21.226Z,100.00
2022-10-08T04:56:50.846Z,100.00
2022-10-08T04:59:20.363Z,100.00
2022-10-08T05:01:52.877Z,100.00
2022-10-08T05:04:22.403Z,100.00
2022-10-08T05:06:52.472Z,100.00
2022-10-08T05:09:22.156Z,100.00
2022-10-08T05:11:52.906Z,100.00
2022-10-08T05:14:22.500Z,100.00
2022-10-08T05:16:54.759Z,100.00
2022-10-08T05:19:24.469Z,100.00
2022-10-08T05:21:54.055Z,100.00
2022-10-08T05:24:23.623Z,100.00
2022-10-08T05:26:58.523Z,100.00
2022-10-08T05:29:30.122Z,100.00
2022-10-08T05:32:02.286Z,100.00
2022-10-08T05:34:31.869Z,100.00
2022-10-08T05:37:01.447Z,100.00
2022-10-08T05:39:30.966Z,100.00
2022-10-08T05:42:00.509Z,100.00
2022-10-08T05:44:32.807Z,100.00
2022-10-08T05:47:07.081Z,100.00
2022-10-08T05:49:36.889Z,100.00
2022-10-08T05:52:06.450Z,100.00
2022-10-08T05:54:35.984Z,100.00
2022-10-08T05:57:05.554Z,100.00
2022-10-08T05:59:35.128Z,100.00
2022-10-08T06:02:07.304Z,100.00
2022-10-08T06:04:36.926Z,100.00
2022-10-08T06:07:06.513Z,100.00
2022-10-08T06:09:36.169Z,100.00
2022-10-08T06:12:06.536Z,100.00
2022-10-08T06:14:36.206Z,100.00
2022-10-08T06:17:08.341Z,100.00
2022-10-08T06:19:38.134Z,100.00
2022-10-08T06:22:07.767Z,100.00
2022-10-08T06:24:37.281Z,100.00
2022-10-08T06:27:07.074Z,100.00
2022-10-08T06:29:36.772Z,100.00
2022-10-08T06:32:09.404Z,100.00
2022-10-08T06:34:38.932Z,100.00
2022-10-08T06:37:08.474Z,100.00
2022-10-08T06:39:37.995Z,100.00
2022-10-08T06:42:07.549Z,100.00
2022-10-08T06:44:40.167Z,100.00
2022-10-08T06:47:12.268Z,100.00
2022-10-08T06:49:41.847Z,100.00
2022-10-08T06:52:12.483Z,100.00
2022-10-08T06:54:42.051Z,100.00
2022-10-08T06:57:11.578Z,100.00
2022-10-08T06:59:41.155Z,100.00
2022-10-08T07:02:14.240Z,100.00
2022-10-08T07:04:43.820Z,100.00
2022-10-08T07:07:13.375Z,100.00
2022-10-08T07:09:42.892Z,100.00
2022-10-08T07:12:12.647Z,100.00
2022-10-08T07:14:42.383Z,100.00
2022-10-08T07:17:14.487Z,100.00
2022-10-08T07:19:44.109Z,100.00
2022-10-08T07:22:13.635Z,100.00
2022-10-08T07:24:43.155Z,100.00
2022-10-08T07:27:12.701Z,100.00
2022-10-08T07:29:42.340Z,100.00
2022-10-08T07:32:14.467Z,100.00
2022-10-08T07:34:44.132Z,100.00
2022-10-08T07:37:13.641Z,100.00
2022-10-08T07:39:43.585Z,100.00
2022-10-08T07:42:13.128Z,100.00
2022-10-08T07:44:42.628Z,100.00
2022-10-08T07:47:14.825Z,100.00
2022-10-08T07:49:44.360Z,100.00
2022-10-08T07:52:13.933Z,100.00
2022-10-08T07:54:45.318Z,100.00
2022-10-08T07:57:14.908Z,100.00
2022-10-08T07:59:44.457Z,100.00
2022-10-08T08:02:16.897Z,100.00
2022-10-08T08:04:46.512Z,100.00
2022-10-08T08:07:16.055Z,100.00
2022-10-08T08:09:45.575Z,100.00
2022-10-08T08:12:15.185Z,100.00
2022-10-08T08:14:44.789Z,100.00
2022-10-08T08:17:16.947Z,100.00
2022-10-08T08:19:46.598Z,100.00
2022-10-08T08:22:16.151Z,100.00
2022-10-08T08:24:45.705Z,100.00
2022-10-08T08:27:15.384Z,100.00
2022-10-08T08:29:44.925Z,100.00
2022-10-08T08:32:17.529Z,100.00
2022-10-08T08:34:47.161Z,100.00
2022-10-08T08:37:16.784Z,100.00
2022-10-08T08:39:46.311Z,100.00
2022-10-08T08:42:36.935Z,100.00
2022-10-08T08:45:22.749Z,100.00
2022-10-08T08:48:05.816Z,100.00
2022-10-08T08:50:37.460Z,100.00
2022-10-08T08:53:08.771Z,100.00
2022-10-08T08:55:41.160Z,100.00
2022-10-08T08:58:25.683Z,100.00
2022-10-08T09:00:59.753Z,100.00
2022-10-08T09:03:34.773Z,100.00
2022-10-08T09:06:09.858Z,100.00
2022-10-08T09:08:43.522Z,100.00
2022-10-08T09:11:16.278Z,100.00
2022-10-08T09:13:49.293Z,100.00
2022-10-08T09:16:19.810Z,100.00
2022-10-08T09:18:53.451Z,100.00
2022-10-08T09:21:23.659Z,100.00
2022-10-08T09:23:53.243Z,100.00
2022-10-08T09:26:24.597Z,100.00
2022-10-08T09:28:55.644Z,100.00
2022-10-08T09:31:30.294Z,100.00
2022-10-08T09:34:08.559Z,100.00
2022-10-08T09:36:39.992Z,100.00
2022-10-08T09:39:16.010Z,100.00
2022-10-08T09:41:47.153Z,100.00
2022-10-08T09:44:22.339Z,100.00
2022-10-08T09:46:53.845Z,100.00
2022-10-08T09:49:31.123Z,100.00
2022-10-08T09:52:03.532Z,100.00
2022-10-08T09:54:36.923Z,100.00
2022-10-08T09:57:07.377Z,100.00
2022-10-08T09:59:45.208Z,100.00
2022-10-08T10:02:32.075Z,100.00
2022-10-08T10:05:06.187Z,100.00
2022-10-08T10:07:41.290Z,100.00
2022-10-08T10:10:20.239Z,100.00
2022-10-08T10:12:52.500Z,100.00
2022-10-08T10:15:24.776Z,100.00
2022-10-08T10:17:56.292Z,100.00
2022-10-08T10:20:31.965Z,100.00
2022-10-08T10:23:03.754Z,100.00
2022-10-08T10:25:38.485Z,100.00
2022-10-08T10:28:11.626Z,100.00
2022-10-08T10:30:50.830Z,99.79
2022-10-08T10:33:24.610Z,98.81
2022-10-08T10:36:00.386Z,98.18
2022-10-08T10:38:31.948Z,98.19
2022-10-08T10:41:11.043Z,96.55
2022-10-08T10:43:48.154Z,95.05
2022-10-08T10:46:27.067Z,93.41
2022-10-08T10:48:57.553Z,93.22
2022-10-08T10:51:39.455Z,92.56
2022-10-08T10:54:18.877Z,91.52
2022-10-08T10:56:52.098Z,90.98
2022-10-08T10:59:33.715Z,89.03
2022-10-08T11:02:09.741Z,87.05
2022-10-08T11:04:47.676Z,86.32
2022-10-08T11:07:35.584Z,87.42
2022-10-08T11:10:12.035Z,89.31
2022-10-08T11:12:46.925Z,91.11
2022-10-08T11:15:24.827Z,90.40
2022-10-08T11:18:03.932Z,86.71
2022-10-08T11:20:47.019Z,84.90
2022-10-08T11:23:39.928Z,84.66
2022-10-08T11:26:22.858Z,81.98
2022-10-08T11:29:01.194Z,79.81
2022-10-08T11:31:36.498Z,78.57
2022-10-08T11:34:06.449Z,78.71
2022-10-08T11:36:40.252Z,80.83
2022-10-08T11:39:16.935Z,77.99
2022-10-08T11:41:53.417Z,79.52
2022-10-08T11:44:23.748Z,78.24
2022-10-08T11:46:53.453Z,78.60
2022-10-08T11:49:50.356Z,80.19
2022-10-08T11:52:19.979Z,77.92
2022-10-08T11:54:56.111Z,79.13
2022-10-08T12:00:35.057Z,80.62
2022-10-08T12:03:05.885Z,80.75
2022-10-08T12:05:49.305Z,79.56
2022-10-08T12:08:50.728Z,80.46
2022-10-08T12:11:50.720Z,82.34
2022-10-08T12:14:50.338Z,82.24
2022-10-08T12:17:19.958Z,83.50
2022-10-08T12:20:22.786Z,79.52
2022-10-08T12:23:38.243Z,78.55
2022-10-08T12:26:15.059Z,77.74
2022-10-08T12:28:51.872Z,78.72
2022-10-08T12:31:29.459Z,79.81
2022-10-08T12:34:04.353Z,80.02
2022-10-08T12:36:46.925Z,79.03
2022-10-08T12:39:24.547Z,80.17
2022-10-08T12:42:01.215Z,79.82
2022-10-08T12:44:41.044Z,79.82
2022-10-08T12:47:21.540Z,79.17
2022-10-08T12:49:56.853Z,77.50
2022-10-08T12:52:27.050Z,77.31
2022-10-08T12:54:58.244Z,78.64
2022-10-08T12:57:30.523Z,79.64
2022-10-08T13:00:00.915Z,80.85
2022-10-08T13:02:40.050Z,81.67
2022-10-08T13:05:25.353Z,81.94
2022-10-08T13:07:55.197Z,81.34
2022-10-08T13:10:26.491Z,81.57
2022-10-08T13:13:03.873Z,81.44
2022-10-08T13:15:34.109Z,81.79
2022-10-08T13:18:15.693Z,81.71
2022-10-08T13:20:59.167Z,79.87
2022-10-08T13:23:34.041Z,79.26
2022-10-08T13:26:03.768Z,78.59
2022-10-08T13:28:59.426Z,77.90
2022-10-08T13:31:25.815Z,79.51
2022-10-08T13:33:58.019Z,77.70
2022-10-08T13:36:27.626Z,77.18
2022-10-08T13:38:57.191Z,77.87
2022-10-08T13:41:26.885Z,78.05
2022-10-08T13:43:56.656Z,76.01
2022-10-08T13:46:26.285Z,74.43
2022-10-08T13:48:58.504Z,74.28
2022-10-08T13:51:28.109Z,74.64
2022-10-08T13:53:58.079Z,75.05
2022-10-08T13:56:27.661Z,74.02
2022-10-08T13:58:57.191Z,73.06
2022-10-08T14:01:26.811Z,72.33
2022-10-08T14:03:58.998Z,72.25
2022-10-08T14:06:28.519Z,72.26
2022-10-08T14:08:58.084Z,74.01
2022-10-08T14:11:27.668Z,72.60
2022-10-08T14:13:57.184Z,73.15
2022-10-08T14:16:26.818Z,72.93
2022-10-08T14:18:59.368Z,74.37
2022-10-08T14:21:29.260Z,74.88
2022-10-08T14:23:58.792Z,75.37
2022-10-08T14:26:28.757Z,76.66
2022-10-08T14:29:00.138Z,78.68
2022-10-08T14:31:30.464Z,79.27
2022-10-08T14:34:02.622Z,80.71
2022-10-08T14:36:35.110Z,80.41
2022-10-08T14:39:04.891Z,80.14
2022-10-08T14:41:34.895Z,80.87
2022-10-08T14:44:04.450Z,80.78
2022-10-08T14:46:34.016Z,82.15
2022-10-08T14:49:06.231Z,82.82
2022-10-08T14:51:38.704Z,83.49
2022-10-08T14:54:08.956Z,83.46
2022-10-08T14:56:44.883Z,83.30
2022-10-08T14:59:14.986Z,83.88
2022-10-08T15:01:44.697Z,82.89
2022-10-08T15:04:17.732Z,82.09
2022-10-08T15:06:47.378Z,82.01
2022-10-08T15:09:17.772Z,80.84
2022-10-08T15:11:47.322Z,82.34
2022-10-08T15:14:17.225Z,83.81
2022-10-08T15:16:46.838Z,84.51
2022-10-08T15:19:23.520Z,84.05
2022-10-08T15:21:53.808Z,84.97
2022-10-08T15:24:23.308Z,85.67
2022-10-08T15:26:52.816Z,86.60
2022-10-08T15:29:22.630Z,86.70
2022-10-08T15:31:52.505Z,86.78
2022-10-08T15:34:24.753Z,87.15
2022-10-08T15:36:56.702Z,85.82
2022-10-08T15:39:26.485Z,86.77
2022-10-08T15:41:56.133Z,84.90
2022-10-08T15:44:26.899Z,84.36
2022-10-08T15:47:01.548Z,82.25
2022-10-08T15:49:37.750Z,82.55
2022-10-08T15:52:08.549Z,81.18
2022-10-08T15:54:38.615Z,79.46
2022-10-08T15:57:08.726Z,79.87
2022-10-08T15:59:38.888Z,80.43
2022-10-08T16:02:12.848Z,79.60
2022-10-08T16:04:48.161Z,78.92
2022-10-08T16:07:17.961Z,79.73
2022-10-08T16:09:47.634Z,80.05
2022-10-08T16:12:17.229Z,80.12
2022-10-08T16:14:46.845Z,79.95
2022-10-08T16:17:16.489Z,79.62
2022-10-08T16:19:48.759Z,79.06
2022-10-08T16:22:18.394Z,80.08
2022-10-08T16:24:47.934Z,79.59
2022-10-08T16:27:17.433Z,80.56
2022-10-08T16:29:46.984Z,81.76
2022-10-08T16:32:16.490Z,81.68
2022-10-08T16:34:53.262Z,81.47
2022-10-08T16:37:23.164Z,82.68
2022-10-08T16:39:52.720Z,82.56
2022-10-08T16:42:22.269Z,83.30
2022-10-08T16:44:51.814Z,83.72
2022-10-08T16:47:21.616Z,84.67
2022-10-08T16:49:53.845Z,85.16
2022-10-08T16:52:23.420Z,84.34
2022-10-08T16:54:54.736Z,85.17
2022-10-08T16:57:25.463Z,85.27
2022-10-08T16:59:54.984Z,86.09
2022-10-08T17:02:26.141Z,85.83
2022-10-08T17:04:59.302Z,86.76
2022-10-08T17:07:29.091Z,87.55
2022-10-08T17:09:58.608Z,87.63
2022-10-08T17:12:28.199Z,88.17
2022-10-08T17:14:57.769Z,87.76
2022-10-08T17:17:27.392Z,87.87
2022-10-08T17:19:59.585Z,88.32
2022-10-08T17:22:29.291Z,88.89
2022-10-08T17:24:58.815Z,89.79
2022-10-08T17:27:28.352Z,89.72
2022-10-08T17:29:57.892Z,90.33
2022-10-08T17:32:27.529Z,90.51
2022-10-08T17:34:59.645Z,91.07
2022-10-08T17:37:29.222Z,91.39
2022-10-08T17:39:58.932Z,91.71
2022-10-08T17:42:28.464Z,92.16
2022-10-08T17:44:58.657Z,92.28
2022-10-08T17:47:29.306Z,92.53
2022-10-08T17:50:01.626Z,93.19
2022-10-08T17:52:31.232Z,93.34
2022-10-08T17:55:00.857Z,94.38
2022-10-08T17:57:30.446Z,94.01
2022-10-08T18:00:00.048Z,94.28
2022-10-08T18:02:29.758Z,94.72
2022-10-08T18:05:01.953Z,94.88
2022-10-08T18:07:32.687Z,94.96
2022-10-08T18:10:02.219Z,95.48
2022-10-08T18:12:31.860Z,95.42
2022-10-08T18:15:01.382Z,96.47
2022-10-08T18:17:30.914Z,96.84
2022-10-08T18:20:03.092Z,97.01
2022-10-08T18:22:32.731Z,97.35
2022-10-08T18:25:03.923Z,97.56
2022-10-08T18:27:33.600Z,98.21
2022-10-08T18:30:03.451Z,98.14
2022-10-08T18:32:32.969Z,99.00
2022-10-08T18:35:05.087Z,98.61
2022-10-08T18:37:34.620Z,98.68
2022-10-08T18:40:04.200Z,98.79
2022-10-08T18:42:33.720Z,99.15
2022-10-08T18:45:03.282Z,99.21
2022-10-08T18:47:33.008Z,99.22
2022-10-08T18:50:05.221Z,99.70
2022-10-08T18:52:34.799Z,99.65
2022-10-08T18:55:04.340Z,100.00
2022-10-08T18:57:33.972Z,100.00
2022-10-08T19:00:03.531Z,100.00
2022-10-08T19:02:33.226Z,100.00
2022-10-08T19:05:05.384Z,100.00
2022-10-08T19:07:35.636Z,100.00
2022-10-08T19:10:05.308Z,100.00
2022-10-08T19:12:34.957Z,100.00
2022-10-08T19:15:04.485Z,100.00
2022-10-08T19:17:34.026Z,100.00
2022-10-08T19:20:06.325Z,100.00
2022-10-08T19:22:35.937Z,100.00
2022-10-08T19:25:05.511Z,100.00
2022-10-08T19:27:35.375Z,100.00
2022-10-08T19:30:04.972Z,100.00
2022-10-08T19:32:34.571Z,100.00
2022-10-08T19:35:07.549Z,100.00
2022-10-08T19:37:37.149Z,100.00
2022-10-08T19:40:07.777Z,100.00
2022-10-08T19:42:37.421Z,100.00
2022-10-08T19:45:07.898Z,100.00
2022-10-08T19:47:38.151Z,100.00
2022-10-08T19:50:11.229Z,100.00
2022-10-08T19:52:40.747Z,100.00
2022-10-08T19:55:11.592Z,100.00
2022-10-08T19:57:41.124Z,100.00
2022-10-08T20:00:11.993Z,100.00
2022-10-08T20:02:41.569Z,100.00
2022-10-08T20:05:13.982Z,100.00
2022-10-08T20:07:43.553Z,100.00
2022-10-08T20:10:13.468Z,100.00
2022-10-08T20:12:43.461Z,100.00
2022-10-08T20:15:13.171Z,100.00
2022-10-08T20:17:43.029Z,100.00
2022-10-08T20:20:32.397Z,100.00
2022-10-08T20:23:02.819Z,100.00
2022-10-08T20:25:32.412Z,100.00
2022-10-08T20:28:02.007Z,100.00
2022-10-08T20:30:32.589Z,100.00
2022-10-08T20:33:02.067Z,100.00
2022-10-08T20:35:34.203Z,100.00
2022-10-08T20:38:03.785Z,100.00
2022-10-08T20:40:33.439Z,100.00
2022-10-08T20:43:03.006Z,100.00
2022-10-08T20:45:32.603Z,100.00
2022-10-08T20:48:02.166Z,100.00
2022-10-08T20:50:34.346Z,100.00
2022-10-08T20:53:03.871Z,100.00
2022-10-08T20:55:33.384Z,100.00
2022-10-08T20:58:02.901Z,100.00
2022-10-08T21:00:34.164Z,100.00
2022-10-08T21:03:03.815Z,100.00
2022-10-08T21:05:43.075Z,100.00
2022-10-08T21:08:13.648Z,100.00
2022-10-08T21:10:43.380Z,100.00
2022-10-08T21:13:13.102Z,100.00
2022-10-08T21:15:42.808Z,100.00
2022-10-08T21:18:12.372Z,100.00
2022-10-08T21:20:44.885Z,100.00
2022-10-08T21:23:14.446Z,100.00
2022-10-08T21:25:43.963Z,100.00
2022-10-08T21:28:13.551Z,100.00
2022-10-08T21:30:43.093Z,100.00
2022-10-08T21:33:12.642Z,100.00
2022-10-08T21:35:44.779Z,100.00
2022-10-08T21:38:14.300Z,100.00
2022-10-08T21:40:43.843Z,100.00
2022-10-08T21:43:13.378Z,100.00
2022-10-08T21:45:42.961Z,100.00
2022-10-08T21:48:12.570Z,100.00
2022-10-08T21:50:44.989Z,100.00
2022-10-08T21:53:14.501Z,100.00
2022-10-08T21:55:44.016Z,100.00
2022-10-08T21:58:13.573Z,100.00
2022-10-08T22:00:43.276Z,100.00
2022-10-08T22:03:12.845Z,100.00
2022-10-08T22:05:52.172Z,100.00
2022-10-08T22:08:22.086Z,100.00
2022-10-08T22:10:51.832Z,100.00
2022-10-08T22:13:21.588Z,100.00
2022-10-08T22:15:55.489Z,100.00
2022-10-08T22:18:25.363Z,100.00
2022-10-08T22:20:57.701Z,100.00
2022-10-08T22:23:27.464Z,100.00
2022-10-08T22:25:57.544Z,100.00
2022-10-08T22:28:27.770Z,100.00
2022-10-08T22:30:57.539Z,100.00
2022-10-08T22:33:27.096Z,100.00
2022-10-08T22:36:02.602Z,100.00
2022-10-08T22:38:33.157Z,100.00
2022-10-08T22:41:06.896Z,100.00
2022-10-08T22:43:36.797Z,100.00
2022-10-08T22:46:07.620Z,100.00
2022-10-08T22:48:37.237Z,100.00
2022-10-08T22:51:11.389Z,100.00
2022-10-08T22:53:41.164Z,100.00
2022-10-08T22:56:13.817Z,100.00
2022-10-08T22:58:43.348Z,100.00
2022-10-08T23:01:15.072Z,100.00
2022-10-08T23:03:44.909Z,100.00
2022-10-08T23:06:20.424Z,100.00
2022-10-08T23:08:51.728Z,100.00
2022-10-08T23:11:21.284Z,100.00
2022-10-08T23:13:53.168Z,100.00
2022-10-08T23:16:23.110Z,100.00
2022-10-08T23:18:56.280Z,100.00
2022-10-08T23:21:28.731Z,100.00
2022-10-08T23:23:59.024Z,100.00
2022-10-08T23:26:29.676Z,100.00
2022-10-08T23:29:00.565Z,100.00
2022-10-08T23:31:31.567Z,100.00
2022-10-08T23:34:01.669Z,100.00
2022-10-08T23:36:37.055Z,100.00
2022-10-08T23:39:07.282Z,100.00
2022-10-08T23:41:37.003Z,100.00
2022-10-08T23:44:06.826Z,100.00
2022-10-08T23:46:36.357Z,100.00
2022-10-08T23:49:05.974Z,100.00
2022-10-08T23:51:38.080Z,100.00
2022-10-08T23:54:08.060Z,100.00
2022-10-08T23:56:37.816Z,100.00
2022-10-08T23:59:07.425Z,100.00
